Kypros Bravery — 5BET4 — position and weather

sailwx.info

Track history (hours):
 
Tides and Currents Weather Stations Pressure Air Temp Water Temp Dewpoint Dewpoint Depression Visibility Wind Speed Wind Dir Waves Ship Positions

Kypros Bravery

Last reported at 2017-Dec-09 13:20 UTC. Time now 2017-Dec-13 17:01 UTC.
Position N 37°45' W 000°20'.

Length 225 m; draft 9.6 m.

Type: Cargo ship. MMSI: 212498000.

Date/timePositionNaut miles runAvg speedWind from/ knotsBaromVisibWave heightAir tempDewpointWater temp
2017-Dec-09 13:20N 37°45' W 000°20'412.2
2017-Dec-09 13:00N 37°42' W 000°23'611.8
2017-Dec-09 12:30N 37°37' W 000°27'611.6
2017-Dec-09 12:00N 37°32' W 000°31'711.8
2017-Dec-09 11:27N 37°28' W 000°38'511.8
2017-Dec-09 11:00N 37°25' W 000°43'611.6
2017-Dec-09 10:30N 37°21' W 000°48'611.6
2017-Dec-09 10:00N 37°17' W 000°54'611.4
2017-Dec-09 09:29N 37°13' W 000°59'611.6
2017-Dec-09 08:59N 37°09' W 001°05'  
Track history (hours):
 
Tides and Currents Weather Stations Pressure Air Temp Water Temp Dewpoint Dewpoint Depression Visibility Wind Speed Wind Dir Waves Ship Positions

Kypros Bravery

Last reported at 2017-Dec-09 13:20 UTC. Time now 2017-Dec-13 17:01 UTC.
Position N 37°45' W 000°20'.

Length 225 m; draft 9.6 m.

Type: Cargo ship. MMSI: 212498000.

Date/timePositionNaut miles runAvg speedWind from/ knotsBaromVisibWave heightAir tempDewpointWater temp
2017-Dec-09 13:20N 37°45' W 000°20'412.2
2017-Dec-09 13:00N 37°42' W 000°23'611.8
2017-Dec-09 12:30N 37°37' W 000°27'611.6
2017-Dec-09 12:00N 37°32' W 000°31'711.8
2017-Dec-09 11:27N 37°28' W 000°38'511.8
2017-Dec-09 11:00N 37°25' W 000°43'611.6
2017-Dec-09 10:30N 37°21' W 000°48'611.6
2017-Dec-09 10:00N 37°17' W 000°54'611.4
2017-Dec-09 09:29N 37°13' W 000°59'611.6
2017-Dec-09 08:59N 37°09' W 001°05'  

Dump ship's entire track history